West Dade, Florida
Current Conditions -  °F | °C
As of 8:53 PM on Saturday 25 Oct 2014 (Local Time) from KTMB Reporting Station
Clear Clear  
Wind Chill: 76°   Ceiling: Unl
Heat Index: 76°   Visibility: 10mi
Dew Point: 61°   Wind: 5mph
Humidity: 60%   Direction: 50°NE
Pressure: 29.95"   Gusts: NA
Location:  25.5736°N, 80.7073°W
Report Text: KTMB 260053Z 05004KT 10SM CLR 24/16 A2995 RMK AO2 SLP139 T02440161
Loading
Personal Weather Stations






























Interactive Weather Map New forecast layout! Learn more

10-Day Weather Forecast

Advertisements
Track Severe Weather on mobile